RYR419 EPMO-EPSC
Flight info
| Callsign | RYR419 |
|---|---|
| Flight time | 0h 41m |
| Altitude | 18000 |
| Route | OLIL3J OLILA ZAWIK ZAWIK1B |
| Aircraft | B738/M-SDE2E3FGHIRWXY/S |
Departure
| Time | 2026-05-08 19:18 |
|---|---|
| Airport | Warsaw Modlin Airport (EPMO) |
Arrival
| Time | 2026-05-08 19:59 |
|---|---|
| Airport | Solidarity Szczecin–Goleniów Airport (EPSC) |
| Time | Latitude | Longitude | Altitude | Speed | Heading |
|---|---|---|---|---|---|
| 2026-05-08 19:06 | 52.44731 | 20.65101 | 349 ft | 0 kts | 204° |
| 2026-05-08 19:10 | 52.44741 | 20.65106 | 357 ft | 2 kts | 188° |
| 2026-05-08 19:10 | 52.44757 | 20.65107 | 354 ft | 2 kts | 157° |
| 2026-05-08 19:11 | 52.44769 | 20.65089 | 359 ft | 2 kts | 109° |
| 2026-05-08 19:11 | 52.44771 | 20.65067 | 357 ft | 1 kts | 88° |
| 2026-05-08 19:11 | 52.44771 | 20.65064 | 359 ft | 0 kts | 85° |
| 2026-05-08 19:13 | 52.44772 | 20.65069 | 357 ft | 3 kts | 80° |
| 2026-05-08 19:13 | 52.44781 | 20.65155 | 353 ft | 12 kts | 81° |
| 2026-05-08 19:13 | 52.44798 | 20.65340 | 353 ft | 20 kts | 82° |
| 2026-05-08 19:14 | 52.44821 | 20.65571 | 352 ft | 21 kts | 80° |
| 2026-05-08 19:14 | 52.44840 | 20.65806 | 350 ft | 20 kts | 81° |
| 2026-05-08 19:14 | 52.44860 | 20.66027 | 349 ft | 20 kts | 81° |
| 2026-05-08 19:14 | 52.44882 | 20.66244 | 357 ft | 19 kts | 81° |
| 2026-05-08 19:15 | 52.44901 | 20.66454 | 349 ft | 18 kts | 82° |
| 2026-05-08 19:15 | 52.44921 | 20.66657 | 349 ft | 18 kts | 82° |
| 2026-05-08 19:15 | 52.44939 | 20.66855 | 357 ft | 18 kts | 81° |
| 2026-05-08 19:15 | 52.44972 | 20.67047 | 357 ft | 17 kts | 47° |
| 2026-05-08 19:16 | 52.45088 | 20.67058 | 352 ft | 17 kts | 355° |
| 2026-05-08 19:16 | 52.45186 | 20.67028 | 353 ft | 0 kts | 345° |
| 2026-05-08 19:16 | 52.45188 | 20.67028 | 352 ft | 2 kts | 344° |
| 2026-05-08 19:16 | 52.45257 | 20.66981 | 349 ft | 19 kts | 325° |
| 2026-05-08 19:17 | 52.45266 | 20.66734 | 353 ft | 32 kts | 261° |
| 2026-05-08 19:17 | 52.45225 | 20.66295 | 354 ft | 84 kts | 261° |
| 2026-05-08 19:17 | 52.45102 | 20.64976 | 347 ft | 151 kts | 262° |
| 2026-05-08 19:17 | 52.44873 | 20.62333 | 893 ft | 192 kts | 263° |
| 2026-05-08 19:18 | 52.44733 | 20.60812 | 1321 ft | 205 kts | 262° |
| 2026-05-08 19:18 | 52.44482 | 20.58452 | 1894 ft | 220 kts | 261° |
| 2026-05-08 19:18 | 52.44220 | 20.55951 | 2592 ft | 224 kts | 266° |
| 2026-05-08 19:18 | 52.44553 | 20.53508 | 3217 ft | 224 kts | 306° |
| 2026-05-08 19:19 | 52.45652 | 20.51709 | 3976 ft | 225 kts | 326° |
| 2026-05-08 19:19 | 52.47034 | 20.50488 | 4744 ft | 227 kts | 334° |
| 2026-05-08 19:19 | 52.48486 | 20.49413 | 5463 ft | 230 kts | 335° |
| 2026-05-08 19:19 | 52.49956 | 20.48345 | 6202 ft | 232 kts | 334° |
| 2026-05-08 19:20 | 52.51437 | 20.47262 | 6911 ft | 234 kts | 334° |
| 2026-05-08 19:20 | 52.52441 | 20.46521 | 7366 ft | 235 kts | 334° |
| 2026-05-08 19:20 | 52.54427 | 20.45039 | 8257 ft | 239 kts | 334° |
| 2026-05-08 19:20 | 52.55947 | 20.43895 | 8947 ft | 241 kts | 333° |
| 2026-05-08 19:21 | 52.57488 | 20.42730 | 9526 ft | 250 kts | 333° |
| 2026-05-08 19:21 | 52.59130 | 20.41481 | 9772 ft | 272 kts | 333° |
| 2026-05-08 19:21 | 52.60918 | 20.40118 | 9982 ft | 295 kts | 333° |
| 2026-05-08 19:21 | 52.62848 | 20.38646 | 10156 ft | 317 kts | 333° |
| 2026-05-08 19:22 | 52.64917 | 20.37064 | 10323 ft | 339 kts | 333° |
| 2026-05-08 19:22 | 52.67117 | 20.35381 | 10476 ft | 359 kts | 333° |
| 2026-05-08 19:22 | 52.69293 | 20.33211 | 10690 ft | 372 kts | 315° |
| 2026-05-08 19:22 | 52.70817 | 20.29764 | 11242 ft | 375 kts | 295° |
| 2026-05-08 19:23 | 52.71584 | 20.25655 | 11916 ft | 376 kts | 282° |
| 2026-05-08 19:23 | 52.72157 | 20.21434 | 12560 ft | 379 kts | 283° |
| 2026-05-08 19:23 | 52.72760 | 20.17174 | 13147 ft | 383 kts | 283° |
| 2026-05-08 19:23 | 52.73369 | 20.12880 | 13761 ft | 387 kts | 283° |
| 2026-05-08 19:24 | 52.73987 | 20.08539 | 14341 ft | 389 kts | 283° |
| 2026-05-08 19:24 | 52.74609 | 20.04179 | 14924 ft | 391 kts | 283° |
| 2026-05-08 19:24 | 52.75234 | 19.99804 | 15511 ft | 393 kts | 283° |
| 2026-05-08 19:24 | 52.75862 | 19.95399 | 16081 ft | 395 kts | 283° |
| 2026-05-08 19:25 | 52.76494 | 19.90967 | 16637 ft | 397 kts | 283° |
| 2026-05-08 19:25 | 52.77128 | 19.86517 | 17185 ft | 400 kts | 283° |
| 2026-05-08 19:25 | 52.77764 | 19.82032 | 17725 ft | 402 kts | 283° |
| 2026-05-08 19:25 | 52.78403 | 19.77520 | 18159 ft | 405 kts | 283° |
| 2026-05-08 19:26 | 52.79044 | 19.72979 | 18144 ft | 405 kts | 283° |
| 2026-05-08 19:26 | 52.79681 | 19.68455 | 18164 ft | 405 kts | 283° |
| 2026-05-08 19:26 | 52.80317 | 19.63920 | 18166 ft | 405 kts | 283° |
| 2026-05-08 19:26 | 52.80951 | 19.59389 | 18171 ft | 405 kts | 283° |
| 2026-05-08 19:27 | 52.81584 | 19.54849 | 18170 ft | 405 kts | 282° |
| 2026-05-08 19:27 | 52.82216 | 19.50303 | 18169 ft | 406 kts | 282° |
| 2026-05-08 19:27 | 52.82846 | 19.45757 | 18174 ft | 406 kts | 282° |
| 2026-05-08 19:27 | 52.83475 | 19.41209 | 18171 ft | 406 kts | 282° |
| 2026-05-08 19:28 | 52.84102 | 19.36652 | 18167 ft | 406 kts | 282° |
| 2026-05-08 19:28 | 52.84728 | 19.32097 | 18164 ft | 406 kts | 282° |
| 2026-05-08 19:28 | 52.85352 | 19.27539 | 18175 ft | 406 kts | 282° |
| 2026-05-08 19:28 | 52.85974 | 19.22984 | 18171 ft | 406 kts | 282° |
| 2026-05-08 19:29 | 52.86594 | 19.18424 | 18170 ft | 406 kts | 282° |
| 2026-05-08 19:29 | 52.87213 | 19.13862 | 18175 ft | 406 kts | 282° |
| 2026-05-08 19:29 | 52.87831 | 19.09293 | 18175 ft | 406 kts | 282° |
| 2026-05-08 19:29 | 52.88438 | 19.04788 | 18170 ft | 406 kts | 282° |
| 2026-05-08 19:30 | 52.89060 | 19.00162 | 18174 ft | 406 kts | 282° |
| 2026-05-08 19:30 | 52.89672 | 18.95594 | 18180 ft | 407 kts | 282° |
| 2026-05-08 19:30 | 52.90283 | 18.91019 | 18171 ft | 407 kts | 282° |
| 2026-05-08 19:30 | 52.90891 | 18.86446 | 18174 ft | 407 kts | 282° |
| 2026-05-08 19:31 | 52.91491 | 18.81929 | 18175 ft | 407 kts | 282° |
| 2026-05-08 19:31 | 52.92097 | 18.77344 | 18176 ft | 407 kts | 282° |
| 2026-05-08 19:31 | 52.92701 | 18.72761 | 18179 ft | 407 kts | 282° |
| 2026-05-08 19:31 | 52.93304 | 18.68181 | 18177 ft | 408 kts | 282° |
| 2026-05-08 19:32 | 52.93906 | 18.63585 | 18183 ft | 408 kts | 282° |
| 2026-05-08 19:32 | 52.94506 | 18.58988 | 18178 ft | 408 kts | 282° |
| 2026-05-08 19:32 | 52.95105 | 18.54385 | 18180 ft | 408 kts | 282° |
| 2026-05-08 19:32 | 52.95702 | 18.49782 | 18183 ft | 409 kts | 282° |
| 2026-05-08 19:33 | 52.96299 | 18.45167 | 18182 ft | 409 kts | 282° |
| 2026-05-08 19:33 | 52.96894 | 18.40552 | 18183 ft | 409 kts | 282° |
| 2026-05-08 19:33 | 52.97487 | 18.35936 | 18183 ft | 410 kts | 282° |
| 2026-05-08 19:33 | 52.98080 | 18.31304 | 18184 ft | 410 kts | 282° |
| 2026-05-08 19:34 | 52.98670 | 18.26679 | 18190 ft | 410 kts | 282° |
| 2026-05-08 19:34 | 52.99260 | 18.22049 | 18193 ft | 410 kts | 282° |
| 2026-05-08 19:34 | 52.99847 | 18.17414 | 18188 ft | 410 kts | 282° |
| 2026-05-08 19:34 | 53.00433 | 18.12779 | 18192 ft | 411 kts | 282° |
| 2026-05-08 19:35 | 53.01018 | 18.08133 | 18193 ft | 411 kts | 282° |
| 2026-05-08 19:35 | 53.01601 | 18.03490 | 18188 ft | 411 kts | 282° |
| 2026-05-08 19:35 | 53.02182 | 17.98841 | 18196 ft | 411 kts | 282° |
| 2026-05-08 19:35 | 53.02763 | 17.94185 | 18192 ft | 412 kts | 282° |
| 2026-05-08 19:36 | 53.03341 | 17.89529 | 18191 ft | 412 kts | 282° |
| 2026-05-08 19:36 | 53.03918 | 17.84870 | 18193 ft | 412 kts | 282° |
| 2026-05-08 19:36 | 53.04493 | 17.80210 | 18191 ft | 412 kts | 282° |
| 2026-05-08 19:36 | 53.05067 | 17.75546 | 18193 ft | 412 kts | 282° |
| 2026-05-08 19:37 | 53.05639 | 17.70877 | 18198 ft | 412 kts | 282° |
| 2026-05-08 19:37 | 53.06209 | 17.66205 | 18192 ft | 413 kts | 282° |
| 2026-05-08 19:37 | 53.06779 | 17.61527 | 18195 ft | 413 kts | 282° |
| 2026-05-08 19:37 | 53.07346 | 17.56848 | 18191 ft | 413 kts | 282° |
| 2026-05-08 19:38 | 53.07913 | 17.52160 | 18197 ft | 413 kts | 281° |
| 2026-05-08 19:38 | 53.08469 | 17.47542 | 18192 ft | 413 kts | 281° |
| 2026-05-08 19:38 | 53.09032 | 17.42849 | 18196 ft | 413 kts | 281° |
| 2026-05-08 19:38 | 53.09592 | 17.38164 | 18197 ft | 414 kts | 281° |
| 2026-05-08 19:39 | 53.10153 | 17.33462 | 18195 ft | 414 kts | 281° |
| 2026-05-08 19:39 | 53.10710 | 17.28769 | 18204 ft | 414 kts | 281° |
| 2026-05-08 19:39 | 53.11266 | 17.24070 | 18197 ft | 414 kts | 281° |
| 2026-05-08 19:39 | 53.11820 | 17.19364 | 18196 ft | 414 kts | 281° |
| 2026-05-08 19:40 | 53.12373 | 17.14659 | 18202 ft | 414 kts | 281° |
| 2026-05-08 19:40 | 53.12925 | 17.09947 | 18200 ft | 414 kts | 281° |
| 2026-05-08 19:40 | 53.13473 | 17.05242 | 18206 ft | 415 kts | 281° |
| 2026-05-08 19:40 | 53.14021 | 17.00524 | 18203 ft | 415 kts | 281° |
| 2026-05-08 19:41 | 53.14568 | 16.95805 | 18205 ft | 415 kts | 281° |
| 2026-05-08 19:41 | 53.15113 | 16.91077 | 18202 ft | 415 kts | 281° |
| 2026-05-08 19:41 | 53.15656 | 16.86350 | 18202 ft | 416 kts | 281° |
| 2026-05-08 19:41 | 53.16198 | 16.81617 | 18197 ft | 415 kts | 281° |
| 2026-05-08 19:42 | 53.16730 | 16.76957 | 17882 ft | 405 kts | 281° |
| 2026-05-08 19:42 | 53.17252 | 16.72356 | 17261 ft | 403 kts | 281° |
| 2026-05-08 19:42 | 53.17773 | 16.67761 | 16480 ft | 404 kts | 281° |
| 2026-05-08 19:42 | 53.18292 | 16.63160 | 15793 ft | 403 kts | 281° |
| 2026-05-08 19:43 | 53.18806 | 16.58586 | 15209 ft | 399 kts | 281° |
| 2026-05-08 19:43 | 53.19313 | 16.54059 | 14667 ft | 395 kts | 281° |
| 2026-05-08 19:43 | 53.19814 | 16.49566 | 14092 ft | 392 kts | 281° |
| 2026-05-08 19:43 | 53.20310 | 16.45108 | 13460 ft | 390 kts | 281° |
| 2026-05-08 19:44 | 53.20800 | 16.40684 | 12844 ft | 387 kts | 281° |
| 2026-05-08 19:44 | 53.21286 | 16.36279 | 12227 ft | 385 kts | 281° |
| 2026-05-08 19:44 | 53.21767 | 16.31906 | 11631 ft | 382 kts | 281° |
| 2026-05-08 19:44 | 53.22246 | 16.27541 | 11349 ft | 385 kts | 281° |
| 2026-05-08 19:45 | 53.22725 | 16.23156 | 11240 ft | 383 kts | 281° |
| 2026-05-08 19:45 | 53.23199 | 16.18803 | 11219 ft | 380 kts | 281° |
| 2026-05-08 19:45 | 53.23671 | 16.14452 | 11218 ft | 382 kts | 281° |
| 2026-05-08 19:45 | 53.24143 | 16.10087 | 11207 ft | 382 kts | 281° |
| 2026-05-08 19:46 | 53.24613 | 16.05723 | 11202 ft | 382 kts | 281° |
| 2026-05-08 19:46 | 53.25080 | 16.01365 | 11204 ft | 381 kts | 281° |
| 2026-05-08 19:46 | 53.26010 | 15.92653 | 11211 ft | 381 kts | 281° |
| 2026-05-08 19:47 | 53.26472 | 15.88302 | 11210 ft | 381 kts | 281° |
| 2026-05-08 19:47 | 53.26933 | 15.83944 | 11211 ft | 381 kts | 281° |
| 2026-05-08 19:47 | 53.27391 | 15.79592 | 11215 ft | 381 kts | 281° |
| 2026-05-08 19:47 | 53.27849 | 15.75234 | 11212 ft | 380 kts | 281° |
| 2026-05-08 19:48 | 53.28294 | 15.70978 | 11196 ft | 365 kts | 281° |
| 2026-05-08 19:48 | 53.28719 | 15.66897 | 11190 ft | 348 kts | 281° |
| 2026-05-08 19:48 | 53.29124 | 15.63005 | 11194 ft | 332 kts | 281° |
| 2026-05-08 19:48 | 53.29510 | 15.59272 | 11200 ft | 323 kts | 281° |
| 2026-05-08 19:49 | 53.29893 | 15.55567 | 11222 ft | 324 kts | 281° |
| 2026-05-08 19:49 | 53.30454 | 15.51946 | 11174 ft | 321 kts | 297° |
| 2026-05-08 19:49 | 53.31659 | 15.48875 | 10998 ft | 310 kts | 307° |
| 2026-05-08 19:49 | 53.32861 | 15.46048 | 10841 ft | 286 kts | 305° |
| 2026-05-08 19:50 | 53.33849 | 15.43624 | 10695 ft | 263 kts | 305° |
| 2026-05-08 19:50 | 53.34828 | 15.41201 | 10551 ft | 237 kts | 305° |
| 2026-05-08 19:50 | 53.35714 | 15.39006 | 10299 ft | 219 kts | 305° |
| 2026-05-08 19:50 | 53.36526 | 15.36992 | 10061 ft | 202 kts | 305° |
| 2026-05-08 19:51 | 53.37308 | 15.35054 | 9502 ft | 200 kts | 306° |
| 2026-05-08 19:51 | 53.38087 | 15.33122 | 8887 ft | 200 kts | 306° |
| 2026-05-08 19:51 | 53.38863 | 15.31194 | 8325 ft | 199 kts | 306° |
| 2026-05-08 19:51 | 53.39633 | 15.29280 | 7783 ft | 197 kts | 306° |
| 2026-05-08 19:52 | 53.40373 | 15.27440 | 7504 ft | 178 kts | 306° |
| 2026-05-08 19:52 | 53.41017 | 15.25831 | 7292 ft | 154 kts | 306° |
| 2026-05-08 19:52 | 53.41617 | 15.24340 | 6725 ft | 155 kts | 307° |
| 2026-05-08 19:52 | 53.42219 | 15.22843 | 6151 ft | 155 kts | 306° |
| 2026-05-08 19:53 | 53.42820 | 15.21345 | 5583 ft | 154 kts | 306° |
| 2026-05-08 19:53 | 53.43417 | 15.19856 | 5042 ft | 153 kts | 305° |
| 2026-05-08 19:53 | 53.44010 | 15.18377 | 4478 ft | 153 kts | 304° |
| 2026-05-08 19:53 | 53.44623 | 15.16916 | 3895 ft | 154 kts | 311° |
| 2026-05-08 19:54 | 53.45353 | 15.15636 | 3358 ft | 154 kts | 315° |
| 2026-05-08 19:54 | 53.46075 | 15.14308 | 2850 ft | 153 kts | 312° |
| 2026-05-08 19:54 | 53.46785 | 15.12947 | 2784 ft | 157 kts | 314° |
| 2026-05-08 19:54 | 53.47505 | 15.11590 | 2715 ft | 154 kts | 313° |
| 2026-05-08 19:55 | 53.48196 | 15.10257 | 2423 ft | 149 kts | 313° |
| 2026-05-08 19:55 | 53.48872 | 15.08941 | 2000 ft | 148 kts | 313° |
| 2026-05-08 19:55 | 53.49543 | 15.07633 | 1962 ft | 150 kts | 313° |
| 2026-05-08 19:55 | 53.50233 | 15.06286 | 1931 ft | 153 kts | 313° |
| 2026-05-08 19:56 | 53.50927 | 15.04931 | 1926 ft | 153 kts | 314° |
| 2026-05-08 19:56 | 53.51625 | 15.03570 | 1927 ft | 154 kts | 313° |
| 2026-05-08 19:56 | 53.52326 | 15.02201 | 1835 ft | 155 kts | 314° |
| 2026-05-08 19:56 | 53.53023 | 15.00840 | 1637 ft | 152 kts | 314° |
| 2026-05-08 19:57 | 53.53708 | 14.99505 | 1428 ft | 150 kts | 314° |
| 2026-05-08 19:57 | 53.54389 | 14.98178 | 1228 ft | 149 kts | 314° |
| 2026-05-08 19:57 | 53.55066 | 14.96859 | 1021 ft | 148 kts | 314° |
| 2026-05-08 19:57 | 53.55731 | 14.95555 | 794 ft | 145 kts | 313° |
| 2026-05-08 19:58 | 53.56384 | 14.94291 | 628 ft | 142 kts | 314° |
| 2026-05-08 19:58 | 53.57030 | 14.93035 | 418 ft | 141 kts | 313° |
| 2026-05-08 19:58 | 53.57663 | 14.91801 | 234 ft | 138 kts | 313° |
| 2026-05-08 19:58 | 53.58248 | 14.90655 | 138 ft | 109 kts | 310° |
| 2026-05-08 19:59 | 53.58604 | 14.89963 | 134 ft | 47 kts | 311° |
| 2026-05-08 19:59 | 53.58796 | 14.89592 | 131 ft | 41 kts | 310° |
| 2026-05-08 19:59 | 53.58960 | 14.89276 | 130 ft | 33 kts | 311° |
| 2026-05-08 19:59 | 53.59103 | 14.88998 | 123 ft | 31 kts | 310° |
| 2026-05-08 20:00 | 53.59204 | 14.88856 | 125 ft | 15 kts | 2° |
| 2026-05-08 20:00 | 53.59241 | 14.88906 | 122 ft | 0 kts | 66° |